Time;durP1;ratioP1;P1;durP2;ratioP2;P2;SDS_P1;SDS_P2;PMS_P1;PMS_P2;Temp;Humidity;BMP_temperature;BMP_pressure;BME280_temperature;BME280_humidity;BME280_pressure;Samples;Min_cycle;Max_cycle;Signal;HPM_P1;HPM_P2
2023/05/06 00:00:28;;;;;;;4.30;2.93;;;8.10;99.90;;;;;;5085384;28;20243;-46
2023/05/06 00:03:00;;;;;;;6.23;3.47;;;8.10;99.90;;;;;;5073842;28;20197;-44
2023/05/06 00:05:28;;;;;;;5.30;3.23;;;8.10;99.90;;;;;;5079801;28;20200;-52
2023/05/06 00:07:59;;;;;;;4.13;3.10;;;8.00;99.90;;;;;;5074658;28;20210;-54
2023/05/06 00:10:34;;;;;;;7.67;3.33;;;8.00;99.90;;;;;;5085608;28;20313;-49
2023/05/06 00:13:05;;;;;;;7.40;3.37;;;8.00;99.90;;;;;;5061573;28;20201;-50
2023/05/06 00:15:44;;;;;;;5.07;3.10;;;8.00;99.90;;;;;;5085253;28;20244;-47
2023/05/06 00:18:21;;;;;;;8.33;3.30;;;8.10;99.90;;;;;;5074502;28;20212;-50
2023/05/06 00:21:12;;;;;;;5.07;3.10;;;8.00;99.90;;;;;;5071154;28;20196;-54
2023/05/06 00:23:56;;;;;;;4.30;3.30;;;8.00;99.90;;;;;;5077086;28;20207;-52
2023/05/06 00:26:46;;;;;;;7.63;3.40;;;8.00;99.90;;;;;;5084063;28;20202;-43
2023/05/06 00:29:26;;;;;;;6.97;3.30;;;8.00;99.90;;;;;;5063269;28;20379;-46
2023/05/06 00:32:13;;;;;;;9.73;3.47;;;8.00;99.90;;;;;;5073230;28;20271;-50
2023/05/06 00:34:45;;;;;;;7.03;3.33;;;8.00;99.90;;;;;;5062784;28;20220;-51
2023/05/06 00:37:13;;;;;;;5.57;3.60;;;8.00;99.90;;;;;;5081539;28;20197;-47
2023/05/06 00:39:41;;;;;;;6.70;3.37;;;8.00;99.90;;;;;;5084333;28;20182;-50
2023/05/06 00:42:15;;;;;;;7.17;3.37;;;8.00;99.90;;;;;;5082930;28;20271;-46
2023/05/06 00:44:47;;;;;;;3.70;3.40;;;8.00;99.90;;;;;;5075698;28;20691;-55
2023/05/06 00:47:22;;;;;;;4.17;3.07;;;8.00;99.90;;;;;;5071589;28;20190;-51
2023/05/06 00:50:06;;;;;;;5.63;3.87;;;8.10;99.90;;;;;;5061079;28;20210;-53
2023/05/06 00:52:41;;;;;;;6.93;4.07;;;8.10;99.90;;;;;;5083793;28;20222;-48
2023/05/06 00:55:14;;;;;;;7.47;3.57;;;8.00;99.90;;;;;;5081665;28;20186;-50
2023/05/06 00:57:48;;;;;;;5.33;3.20;;;8.00;99.90;;;;;;5081443;28;20229;-52
2023/05/06 01:00:19;;;;;;;6.87;3.03;;;8.00;99.90;;;;;;5060676;28;20245;-49
2023/05/06 01:03:03;;;;;;;5.57;3.73;;;8.00;99.90;;;;;;5075001;28;20182;-53
2023/05/06 01:05:46;;;;;;;3.17;2.87;;;8.00;99.90;;;;;;5075902;28;20205;-48
2023/05/06 01:08:28;;;;;;;6.00;3.17;;;8.10;99.90;;;;;;5082045;28;20224;-45
2023/05/06 01:11:14;;;;;;;5.43;3.23;;;8.00;99.90;;;;;;5066909;28;20233;-50
2023/05/06 01:13:56;;;;;;;5.13;3.90;;;8.00;99.90;;;;;;5079189;28;20248;-56
2023/05/06 01:16:28;;;;;;;6.00;3.80;;;8.10;99.90;;;;;;5051713;28;20281;-55
2023/05/06 01:18:56;;;;;;;6.43;3.67;;;8.10;99.90;;;;;;5071865;28;20218;-47
2023/05/06 01:21:34;;;;;;;7.33;3.47;;;8.10;99.90;;;;;;5073068;28;20239;-54
2023/05/06 01:24:08;;;;;;;6.03;3.70;;;8.10;99.90;;;;;;5080884;28;20240;-51
2023/05/06 01:26:46;;;;;;;4.73;3.37;;;8.10;99.90;;;;;;5082636;28;20234;-53
2023/05/06 01:29:26;;;;;;;7.07;3.90;;;8.10;99.90;;;;;;5076200;28;20979;-49
2023/05/06 01:32:04;;;;;;;4.20;3.40;;;8.20;99.90;;;;;;5049110;28;24832;-46
2023/05/06 01:34:43;;;;;;;6.43;3.30;;;8.20;99.90;;;;;;5079800;28;20943;-51
2023/05/06 01:37:30;;;;;;;5.10;3.53;;;8.20;99.90;;;;;;5074298;28;20202;-45
2023/05/06 01:40:17;;;;;;;4.93;3.63;;;8.20;99.90;;;;;;5073876;28;20979;-45
2023/05/06 01:42:50;;;;;;;8.10;3.57;;;8.20;99.90;;;;;;5074721;28;20315;-56
2023/05/06 01:45:28;;;;;;;7.93;3.87;;;8.20;99.90;;;;;;5077008;28;20661;-48
2023/05/06 01:48:01;;;;;;;7.70;4.03;;;8.20;99.90;;;;;;5059719;28;20279;-49
2023/05/06 01:50:41;;;;;;;7.70;3.70;;;8.20;99.90;;;;;;5083875;28;20201;-47
2023/05/06 01:53:12;;;;;;;4.77;3.20;;;8.20;99.90;;;;;;5072066;28;20289;-50
2023/05/06 01:55:46;;;;;;;5.20;3.87;;;8.20;99.90;;;;;;5077764;28;20230;-56
2023/05/06 01:58:19;;;;;;;4.90;3.80;;;8.20;99.90;;;;;;5065538;28;20228;-53
2023/05/06 02:00:57;;;;;;;8.53;3.87;;;8.30;99.90;;;;;;5079078;28;20190;-53
2023/05/06 02:03:25;;;;;;;8.57;4.07;;;8.20;99.90;;;;;;5084106;28;20190;-44
2023/05/06 02:05:53;;;;;;;6.10;3.90;;;8.20;99.90;;;;;;5059047;28;20194;-45
2023/05/06 02:08:21;;;;;;;4.50;3.93;;;8.20;99.90;;;;;;5074255;28;20723;-45
2023/05/06 02:10:57;;;;;;;5.10;4.17;;;8.20;99.90;;;;;;5071937;28;20205;-55
2023/05/06 02:13:46;;;;;;;4.53;3.17;;;8.20;99.90;;;;;;5076659;28;20198;-56
2023/05/06 02:16:20;;;;;;;5.70;3.77;;;8.20;99.90;;;;;;5082866;28;20186;-51
2023/05/06 02:18:48;;;;;;;6.93;4.03;;;8.20;99.90;;;;;;5078054;28;20225;-55
2023/05/06 02:21:21;;;;;;;5.70;3.97;;;8.20;99.90;;;;;;5062739;28;20209;-49
2023/05/06 02:23:52;;;;;;;4.93;3.80;;;8.20;99.90;;;;;;5066506;28;20193;-54
2023/05/06 02:26:23;;;;;;;5.37;3.63;;;8.20;99.90;;;;;;5075318;28;20201;-50
2023/05/06 02:28:55;;;;;;;6.20;3.93;;;8.20;99.90;;;;;;5078781;28;20216;-48
2023/05/06 02:31:25;;;;;;;6.17;4.33;;;8.20;99.90;;;;;;5083145;28;20212;-50
2023/05/06 02:33:56;;;;;;;5.87;4.10;;;8.20;99.90;;;;;;5079508;28;20189;-47
2023/05/06 02:36:26;;;;;;;5.77;4.17;;;8.20;99.90;;;;;;5064022;28;20209;-48
2023/05/06 02:39:05;;;;;;;4.50;4.00;;;8.20;99.90;;;;;;5061347;28;20229;-54
2023/05/06 02:41:45;;;;;;;7.97;3.73;;;8.20;99.90;;;;;;5077727;28;20586;-56
2023/05/06 02:44:15;;;;;;;4.20;3.73;;;8.20;99.90;;;;;;5078979;28;20228;-49
2023/05/06 02:46:47;;;;;;;6.33;3.97;;;8.20;99.90;;;;;;5080662;28;20192;-53
2023/05/06 02:49:19;;;;;;;5.73;4.40;;;8.10;99.90;;;;;;5081847;28;20209;-46
2023/05/06 02:51:58;;;;;;;7.20;3.90;;;8.20;99.90;;;;;;5052673;28;20221;-56
2023/05/06 02:54:33;;;;;;;5.00;4.00;;;8.20;99.90;;;;;;5067450;28;20193;-50
2023/05/06 02:57:23;;;;;;;4.57;3.80;;;8.10;99.90;;;;;;5078665;28;20196;-51
2023/05/06 02:59:58;;;;;;;6.10;3.53;;;8.10;99.90;;;;;;5077457;28;20819;-52
2023/05/06 03:02:34;;;;;;;4.50;3.97;;;8.10;99.90;;;;;;5083156;28;20281;-49
2023/05/06 03:05:03;;;;;;;6.33;4.07;;;8.20;99.90;;;;;;5077392;28;20192;-50
2023/05/06 03:07:49;;;;;;;5.37;3.83;;;8.10;99.90;;;;;;5054111;28;20221;-52
2023/05/06 03:10:24;;;;;;;6.93;4.60;;;8.10;99.90;;;;;;5067920;28;20202;-46
2023/05/06 03:13:06;;;;;;;5.70;4.10;;;8.10;99.90;;;;;;5069446;28;20231;-48
2023/05/06 03:15:50;;;;;;;7.03;4.37;;;8.10;99.90;;;;;;5071882;28;20243;-55
2023/05/06 03:18:21;;;;;;;7.43;3.97;;;8.10;99.90;;;;;;5066856;28;20733;-51
2023/05/06 03:21:05;;;;;;;6.97;3.90;;;8.10;99.90;;;;;;5071530;28;20939;-51
2023/05/06 03:23:42;;;;;;;5.33;4.20;;;8.10;99.90;;;;;;5055718;28;20297;-55
2023/05/06 03:26:13;;;;;;;6.60;3.87;;;8.10;99.90;;;;;;5075314;28;20581;-48
2023/05/06 03:28:56;;;;;;;5.20;4.00;;;8.10;99.90;;;;;;5078760;28;20668;-56
2023/05/06 03:31:42;;;;;;;4.70;4.17;;;8.10;99.90;;;;;;5075977;28;20202;-44
2023/05/06 03:34:18;;;;;;;7.03;4.30;;;8.10;99.90;;;;;;5075655;28;20267;-52
2023/05/06 03:36:49;;;;;;;6.30;4.33;;;8.10;99.90;;;;;;5058450;28;20196;-56
2023/05/06 03:39:21;;;;;;;6.03;4.10;;;8.10;99.90;;;;;;5067288;28;20214;-47
2023/05/06 03:41:57;;;;;;;5.03;4.00;;;8.10;99.90;;;;;;5082598;28;20801;-46
2023/05/06 03:44:39;;;;;;;6.53;4.40;;;8.10;99.90;;;;;;5083035;28;20189;-47
2023/05/06 03:47:16;;;;;;;6.13;4.80;;;8.10;99.90;;;;;;5079418;28;20185;-50
2023/05/06 03:49:55;;;;;;;7.67;4.50;;;8.10;99.90;;;;;;5069071;28;20194;-54
2023/05/06 03:52:32;;;;;;;4.43;4.03;;;8.10;99.90;;;;;;5062444;28;20234;-56
2023/05/06 03:55:04;;;;;;;7.07;4.30;;;8.10;99.90;;;;;;5072740;28;20197;-45
2023/05/06 03:57:34;;;;;;;9.43;4.57;;;8.00;99.90;;;;;;5084505;28;20267;-52
2023/05/06 04:00:10;;;;;;;7.17;4.60;;;8.00;99.90;;;;;;5078511;28;20916;-56
2023/05/06 04:02:55;;;;;;;6.47;4.50;;;8.00;99.90;;;;;;5067632;28;20217;-55
2023/05/06 04:05:33;;;;;;;7.00;4.70;;;8.00;99.90;;;;;;5080638;28;20232;-54
2023/05/06 04:08:05;;;;;;;4.77;4.20;;;8.00;99.90;;;;;;5060284;28;20230;-49
2023/05/06 04:10:50;;;;;;;6.83;4.90;;;8.00;99.90;;;;;;5083252;28;20197;-55
2023/05/06 04:13:41;;;;;;;6.03;4.57;;;8.00;99.90;;;;;;5080819;28;20294;-46
2023/05/06 04:16:20;;;;;;;5.83;4.07;;;8.00;99.90;;;;;;5065962;28;20269;-56
2023/05/06 04:18:56;;;;;;;9.43;4.60;;;8.00;99.90;;;;;;5081074;28;20722;-48
2023/05/06 04:21:30;;;;;;;6.80;4.60;;;8.00;99.90;;;;;;5075884;28;20696;-56
2023/05/06 04:24:06;;;;;;;6.10;4.20;;;8.00;99.90;;;;;;5075686;28;20313;-48
2023/05/06 04:26:38;;;;;;;6.90;4.97;;;8.00;99.90;;;;;;5070985;28;20205;-44
2023/05/06 04:29:12;;;;;;;6.43;4.70;;;8.00;99.90;;;;;;5080949;28;20210;-49
2023/05/06 04:31:57;;;;;;;9.07;4.83;;;8.00;99.90;;;;;;5076868;28;20837;-47
2023/05/06 04:34:27;;;;;;;7.33;4.47;;;8.00;99.90;;;;;;5080091;28;20194;-55
2023/05/06 04:37:02;;;;;;;6.17;4.50;;;8.00;99.90;;;;;;5078697;28;20209;-50
2023/05/06 04:39:46;;;;;;;7.20;4.83;;;8.00;99.90;;;;;;5062632;28;20202;-46
2023/05/06 04:42:17;;;;;;;9.10;4.80;;;8.00;99.90;;;;;;5069354;28;20213;-54
2023/05/06 04:45:15;;;;;;;5.50;5.00;;;8.00;99.90;;;;;;5069913;28;20703;-52
2023/05/06 04:47:55;;;;;;;7.73;4.57;;;8.00;99.90;;;;;;5081749;28;20213;-46
2023/05/06 04:50:25;;;;;;;6.63;5.40;;;8.00;99.90;;;;;;5081985;28;20202;-56
2023/05/06 04:52:57;;;;;;;6.03;4.87;;;8.00;99.90;;;;;;5072239;28;20242;-47
2023/05/06 04:55:32;;;;;;;6.43;4.90;;;8.00;99.90;;;;;;5059827;28;20755;-47
2023/05/06 04:58:06;;;;;;;7.17;4.80;;;8.00;99.90;;;;;;5063184;28;20226;-51
2023/05/06 05:00:36;;;;;;;6.40;4.70;;;8.00;99.90;;;;;;5069657;28;20212;-46
2023/05/06 05:03:16;;;;;;;5.70;4.50;;;8.00;99.90;;;;;;5085138;28;20175;-50
2023/05/06 05:05:49;;;;;;;8.73;5.43;;;8.00;99.90;;;;;;5072561;28;20270;-47
2023/05/06 05:08:31;;;;;;;6.10;4.80;;;8.00;99.90;;;;;;5066935;28;20232;-57
2023/05/06 05:11:02;;;;;;;8.67;5.07;;;8.00;99.90;;;;;;5056456;28;20218;-50
2023/05/06 05:13:37;;;;;;;5.83;4.73;;;8.10;99.90;;;;;;5061253;28;20673;-50
2023/05/06 05:16:07;;;;;;;7.37;5.07;;;8.00;99.90;;;;;;5078225;28;20214;-55
2023/05/06 05:19:11;;;;;;;6.07;5.17;;;8.00;99.90;;;;;;5071160;28;20714;-51
2023/05/06 05:21:46;;;;;;;7.80;4.67;;;8.00;99.90;;;;;;5071423;28;20194;-44
2023/05/06 05:24:19;;;;;;;7.57;4.50;;;8.00;99.90;;;;;;5061407;28;20201;-52
2023/05/06 05:26:50;;;;;;;7.70;5.07;;;8.00;99.90;;;;;;5044833;28;20286;-51
2023/05/06 05:29:24;;;;;;;5.00;4.53;;;8.00;99.90;;;;;;5069005;28;20229;-51
2023/05/06 05:32:06;;;;;;;5.33;4.80;;;8.10;99.90;;;;;;5081651;28;20217;-56
2023/05/06 05:34:45;;;;;;;6.43;5.00;;;8.00;99.90;;;;;;5069679;28;20195;-46
2023/05/06 05:37:19;;;;;;;5.10;4.60;;;8.10;99.90;;;;;;5063872;28;20202;-52
2023/05/06 05:39:58;;;;;;;9.53;5.07;;;8.10;99.90;;;;;;5078391;27;20210;-51
2023/05/06 05:42:33;;;;;;;10.33;5.23;;;8.00;99.90;;;;;;5050075;28;20200;-44
2023/05/06 05:45:16;;;;;;;7.83;5.40;;;8.00;99.90;;;;;;5060792;28;20196;-53
2023/05/06 05:47:52;;;;;;;8.77;5.30;;;8.00;99.90;;;;;;5071594;28;20298;-48
2023/05/06 05:50:41;;;;;;;6.63;5.13;;;8.00;99.90;;;;;;5075277;28;20608;-53
2023/05/06 05:53:09;;;;;;;8.17;5.30;;;8.00;99.90;;;;;;5064385;28;20213;-51
2023/05/06 05:55:48;;;;;;;5.70;4.90;;;8.00;99.90;;;;;;5063856;28;20672;-54
2023/05/06 05:58:23;;;;;;;4.83;4.33;;;8.00;99.90;;;;;;5059855;28;20240;-45
2023/05/06 06:00:58;;;;;;;5.50;4.97;;;8.00;99.90;;;;;;5060208;28;20264;-47
2023/05/06 06:03:32;;;;;;;9.23;5.37;;;8.10;99.90;;;;;;5078670;28;20213;-52
2023/05/06 06:06:11;;;;;;;8.23;5.17;;;8.10;99.90;;;;;;5070611;28;20278;-52
2023/05/06 06:08:41;;;;;;;5.83;5.20;;;8.10;99.90;;;;;;5062575;28;20263;-56
2023/05/06 06:11:12;;;;;;;8.07;5.50;;;8.10;99.90;;;;;;5070686;28;20226;-49
2023/05/06 06:13:42;;;;;;;7.87;4.83;;;8.10;99.90;;;;;;5049621;28;20930;-49
2023/05/06 06:16:09;;;;;;;8.43;5.77;;;8.10;99.90;;;;;;5073143;28;20209;-53
2023/05/06 06:18:36;;;;;;;6.93;5.07;;;8.10;99.90;;;;;;5066887;28;20232;-49
2023/05/06 06:21:05;;;;;;;8.27;5.30;;;8.20;99.90;;;;;;5060412;28;20198;-49
2023/05/06 06:23:32;;;;;;;8.27;5.23;;;8.20;99.90;;;;;;5062202;28;20249;-51
2023/05/06 06:26:00;;;;;;;6.37;5.40;;;8.30;99.90;;;;;;5070686;28;20194;-50
2023/05/06 06:28:32;;;;;;;6.13;4.93;;;8.30;99.90;;;;;;5055660;28;20226;-48
2023/05/06 06:31:00;;;;;;;7.23;5.77;;;8.30;99.90;;;;;;5071483;28;20229;-51
2023/05/06 06:33:27;;;;;;;6.97;5.67;;;8.30;99.90;;;;;;5069621;28;20221;-45
2023/05/06 06:35:54;;;;;;;6.00;5.40;;;8.20;99.90;;;;;;5069013;28;20197;-50
2023/05/06 06:38:23;;;;;;;6.57;5.93;;;8.20;99.90;;;;;;5079207;28;20241;-48
2023/05/06 06:40:50;;;;;;;8.43;5.57;;;8.20;99.90;;;;;;5069652;28;20212;-50
2023/05/06 06:43:18;;;;;;;5.83;5.20;;;8.20;99.90;;;;;;5076654;28;20216;-48
2023/05/06 06:45:57;;;;;;;5.83;5.23;;;8.20;99.90;;;;;;5062899;28;20272;-49
2023/05/06 06:48:24;;;;;;;8.40;5.70;;;8.20;99.90;;;;;;5061898;28;20244;-47
2023/05/06 06:50:51;;;;;;;8.20;5.30;;;8.20;99.90;;;;;;5063662;28;20198;-49
2023/05/06 06:53:18;;;;;;;6.23;5.50;;;8.20;99.90;;;;;;5078734;28;20221;-50
2023/05/06 06:55:46;;;;;;;6.07;5.17;;;8.20;99.90;;;;;;5063381;28;20207;-51
2023/05/06 06:58:13;;;;;;;5.97;5.00;;;8.20;99.90;;;;;;5071991;28;20294;-48
2023/05/06 07:00:40;;;;;;;7.83;5.10;;;8.20;99.90;;;;;;5059017;28;20451;-49
2023/05/06 07:03:07;;;;;;;7.63;5.27;;;8.20;99.90;;;;;;5064156;28;20194;-47
2023/05/06 07:05:34;;;;;;;9.37;5.43;;;8.20;99.90;;;;;;5075649;28;20198;-48
2023/05/06 07:08:01;;;;;;;7.40;4.80;;;8.20;99.90;;;;;;5074536;28;20870;-46
2023/05/06 07:10:29;;;;;;;5.57;5.07;;;8.20;99.90;;;;;;5079152;28;20204;-47
2023/05/06 07:12:58;;;;;;;7.20;5.17;;;8.30;99.90;;;;;;5081226;28;20301;-48
2023/05/06 07:15:25;;;;;;;7.87;5.50;;;8.30;99.90;;;;;;5056660;28;20198;-49
2023/05/06 07:17:52;;;;;;;10.77;5.97;;;8.30;99.90;;;;;;5064443;28;20229;-47
2023/05/06 07:20:19;;;;;;;7.27;5.50;;;8.30;99.90;;;;;;5081375;28;20216;-46
2023/05/06 07:22:46;;;;;;;6.00;5.40;;;8.30;99.90;;;;;;5078931;28;20198;-48
2023/05/06 07:25:13;;;;;;;7.73;5.10;;;8.30;99.90;;;;;;5076119;28;20194;-47
2023/05/06 07:27:40;;;;;;;6.70;5.27;;;8.40;99.90;;;;;;5075242;28;20214;-47
2023/05/06 07:30:10;;;;;;;7.97;4.67;;;8.40;99.90;;;;;;5072744;28;20198;-47
2023/05/06 07:32:37;;;;;;;7.00;5.07;;;8.40;99.90;;;;;;5068200;28;20291;-46
2023/05/06 07:35:05;;;;;;;6.43;5.20;;;8.40;99.90;;;;;;5076683;28;20283;-47
2023/05/06 07:37:31;;;;;;;7.37;5.30;;;8.40;99.90;;;;;;5074060;28;20246;-48
2023/05/06 07:40:16;;;;;;;5.90;4.97;;;8.50;99.90;;;;;;5077691;28;20209;-46
2023/05/06 07:42:43;;;;;;;7.00;5.77;;;8.50;99.90;;;;;;5071241;28;20233;-48
2023/05/06 07:45:12;;;;;;;6.67;5.17;;;8.50;99.90;;;;;;5068568;28;20225;-47
2023/05/06 07:47:39;;;;;;;7.53;5.50;;;8.50;99.90;;;;;;5069609;28;20213;-48
2023/05/06 07:50:07;;;;;;;6.90;5.23;;;8.50;99.90;;;;;;5074317;28;20193;-46
2023/05/06 07:52:33;;;;;;;8.33;5.47;;;8.50;99.90;;;;;;5072067;28;20225;-46
2023/05/06 07:55:00;;;;;;;8.60;5.33;;;8.50;99.90;;;;;;5068035;28;20198;-52
2023/05/06 07:57:28;;;;;;;5.50;4.83;;;8.50;99.90;;;;;;5057447;28;20221;-52
2023/05/06 07:59:57;;;;;;;6.20;5.10;;;8.50;99.90;;;;;;5087261;28;20194;-49
2023/05/06 08:02:25;;;;;;;8.07;5.73;;;8.60;99.90;;;;;;5060450;28;20866;-44
2023/05/06 08:04:53;;;;;;;5.87;5.07;;;8.60;99.90;;;;;;5064810;28;20869;-49
2023/05/06 08:07:20;;;;;;;7.77;5.27;;;8.60;99.90;;;;;;5082161;28;20194;-44
2023/05/06 08:09:47;;;;;;;7.57;5.70;;;8.60;99.90;;;;;;5075845;28;20535;-52
2023/05/06 08:12:14;;;;;;;7.23;5.17;;;8.60;99.90;;;;;;5069880;28;20212;-48
2023/05/06 08:14:41;;;;;;;7.40;5.93;;;8.70;99.90;;;;;;5068496;28;20201;-53
2023/05/06 08:17:08;;;;;;;7.00;5.90;;;8.80;99.90;;;;;;5059172;28;20194;-47
2023/05/06 08:19:36;;;;;;;10.10;5.97;;;8.80;99.90;;;;;;5079179;28;20198;-53
2023/05/06 08:22:03;;;;;;;6.23;5.63;;;8.70;99.90;;;;;;5071363;28;20269;-47
2023/05/06 08:24:30;;;;;;;6.90;5.53;;;8.80;99.90;;;;;;5075995;28;20284;-49
2023/05/06 08:26:57;;;;;;;6.43;5.70;;;8.80;99.90;;;;;;5066207;28;20223;-50
2023/05/06 08:29:25;;;;;;;6.53;5.67;;;8.70;99.90;;;;;;5077019;28;20226;-43
2023/05/06 08:31:52;;;;;;;8.73;5.67;;;8.80;99.90;;;;;;5059667;28;20664;-54
2023/05/06 08:34:20;;;;;;;7.53;5.63;;;8.80;99.90;;;;;;5066338;28;20204;-48
2023/05/06 08:36:48;;;;;;;8.30;6.10;;;8.80;99.90;;;;;;5066477;28;20202;-43
2023/05/06 08:39:15;;;;;;;6.67;5.67;;;8.90;99.90;;;;;;5071501;28;20632;-48
2023/05/06 08:41:47;;;;;;;8.63;5.77;;;9.00;99.90;;;;;;5058865;28;20968;-49
2023/05/06 08:44:15;;;;;;;8.33;6.40;;;9.00;99.90;;;;;;5075355;28;20198;-46
2023/05/06 08:46:43;;;;;;;8.87;5.70;;;9.00;99.90;;;;;;5072521;28;20236;-50
2023/05/06 08:49:10;;;;;;;5.93;5.43;;;9.00;99.90;;;;;;5060280;28;20221;-46
2023/05/06 08:51:37;;;;;;;7.53;5.70;;;9.00;99.90;;;;;;5063899;28;20243;-54
2023/05/06 08:54:07;;;;;;;6.53;5.37;;;9.10;99.90;;;;;;5068999;28;20214;-50
2023/05/06 08:56:36;;;;;;;5.67;5.17;;;9.10;99.90;;;;;;5073503;28;20245;-54
2023/05/06 08:59:02;;;;;;;9.33;5.57;;;9.20;99.90;;;;;;5075623;28;20218;-46
2023/05/06 09:01:30;;;;;;;7.73;5.50;;;9.20;99.90;;;;;;5082766;28;20198;-55
2023/05/06 09:03:57;;;;;;;7.87;6.27;;;9.20;99.90;;;;;;5062398;28;20284;-43
2023/05/06 09:06:26;;;;;;;8.37;6.07;;;9.20;99.90;;;;;;5077709;28;20623;-53
2023/05/06 09:08:53;;;;;;;7.73;5.50;;;9.20;99.90;;;;;;5067066;28;20216;-46
2023/05/06 09:11:23;;;;;;;11.77;6.13;;;9.20;99.90;;;;;;5083392;28;20206;-49
2023/05/06 09:13:51;;;;;;;7.63;6.00;;;9.30;99.90;;;;;;5070322;28;21114;-48
2023/05/06 09:16:28;;;;;;;9.83;5.87;;;9.40;99.90;;;;;;5084389;28;20656;-48
2023/05/06 09:18:55;;;;;;;7.60;5.80;;;9.30;99.90;;;;;;5059905;28;20233;-50
2023/05/06 09:21:21;;;;;;;6.00;5.40;;;9.20;99.90;;;;;;5076126;28;20706;-51
2023/05/06 09:23:49;;;;;;;7.20;5.80;;;9.30;99.90;;;;;;5068284;28;20429;-46
2023/05/06 09:26:16;;;;;;;7.40;5.03;;;9.30;99.90;;;;;;5081508;28;20629;-49
2023/05/06 09:28:46;;;;;;;7.37;5.80;;;9.30;99.90;;;;;;5072611;28;20926;-51
2023/05/06 09:31:15;;;;;;;6.90;5.23;;;9.40;99.90;;;;;;5078425;28;20206;-49
2023/05/06 09:33:41;;;;;;;5.40;4.40;;;9.40;99.90;;;;;;5075809;28;20813;-47
2023/05/06 09:36:12;;;;;;;8.67;5.53;;;9.40;99.90;;;;;;5055683;28;20218;-51
2023/05/06 09:38:40;;;;;;;6.20;5.30;;;9.40;99.90;;;;;;5079165;28;20318;-51
2023/05/06 09:41:06;;;;;;;6.33;4.90;;;9.40;99.90;;;;;;5074999;28;20206;-49
2023/05/06 09:43:33;;;;;;;5.80;5.10;;;9.40;99.90;;;;;;5078354;28;20183;-51
2023/05/06 09:46:04;;;;;;;7.83;5.40;;;9.40;99.90;;;;;;5075633;28;20211;-49
2023/05/06 09:48:55;;;;;;;5.50;5.00;;;9.40;99.90;;;;;;5073533;28;20217;-49
2023/05/06 09:51:23;;;;;;;8.13;4.73;;;9.40;99.90;;;;;;5060562;28;20201;-49
2023/05/06 09:53:52;;;;;;;5.47;4.97;;;9.50;99.90;;;;;;5079553;28;21072;-53
2023/05/06 09:56:21;;;;;;;6.57;4.93;;;9.50;99.90;;;;;;5074138;28;20577;-49
2023/05/06 09:58:50;;;;;;;5.90;4.93;;;9.40;99.90;;;;;;5079147;28;20210;-49
2023/05/06 10:01:18;;;;;;;6.30;4.70;;;9.50;99.90;;;;;;5073613;28;20202;-45
2023/05/06 10:03:46;;;;;;;5.37;4.30;;;9.50;99.90;;;;;;5067123;28;20228;-46
2023/05/06 10:06:14;;;;;;;5.97;5.30;;;9.50;99.90;;;;;;5062627;28;20213;-51
2023/05/06 10:08:44;;;;;;;6.70;5.70;;;9.50;99.90;;;;;;5077583;28;20217;-52
2023/05/06 10:11:13;;;;;;;6.17;5.23;;;9.60;99.90;;;;;;5073987;28;20676;-46
2023/05/06 10:13:41;;;;;;;7.10;5.43;;;9.60;99.90;;;;;;5079590;28;20290;-48
2023/05/06 10:16:10;;;;;;;6.80;5.47;;;9.70;99.90;;;;;;5069432;28;20262;-48
2023/05/06 10:18:38;;;;;;;8.23;5.63;;;9.60;99.90;;;;;;5075097;28;20226;-45
2023/05/06 10:21:14;;;;;;;7.07;6.13;;;9.50;99.90;;;;;;5063627;28;20202;-47
2023/05/06 10:24:07;;;;;;;7.63;5.03;;;9.60;99.90;;;;;;5075613;28;20197;-47
2023/05/06 10:26:36;;;;;;;6.40;4.77;;;9.60;99.90;;;;;;5074167;28;20268;-46
2023/05/06 10:29:06;;;;;;;7.30;5.07;;;9.70;99.90;;;;;;5076057;28;20213;-51
2023/05/06 10:31:34;;;;;;;8.47;6.23;;;9.70;99.90;;;;;;5071854;28;20200;-43
2023/05/06 10:34:07;;;;;;;5.77;5.17;;;9.70;99.90;;;;;;5076912;28;20225;-45
2023/05/06 10:36:36;;;;;;;6.73;5.00;;;9.80;99.90;;;;;;5066839;28;20198;-44
2023/05/06 10:39:05;;;;;;;6.60;5.13;;;9.80;99.90;;;;;;5078890;28;20301;-48
2023/05/06 10:41:35;;;;;;;5.47;4.90;;;9.80;99.90;;;;;;5078705;28;20206;-47
2023/05/06 10:44:02;;;;;;;7.67;4.90;;;9.90;99.90;;;;;;5067836;28;20286;-45
2023/05/06 10:46:31;;;;;;;6.70;5.20;;;9.90;99.90;;;;;;5081351;28;20193;-46
2023/05/06 10:49:19;;;;;;;7.13;5.23;;;9.80;99.90;;;;;;5075069;28;20229;-48
2023/05/06 10:52:10;;;;;;;8.17;4.70;;;9.80;99.90;;;;;;5066427;28;20924;-51
2023/05/06 10:54:48;;;;;;;9.07;5.60;;;9.80;99.90;;;;;;5051883;28;20880;-48
2023/05/06 10:57:15;;;;;;;8.87;5.53;;;9.80;99.90;;;;;;5073285;28;20186;-50
2023/05/06 10:59:46;;;;;;;7.80;4.93;;;9.80;99.90;;;;;;5061422;28;20198;-45
2023/05/06 11:02:14;;;;;;;6.77;5.10;;;9.80;99.90;;;;;;5081083;28;20964;-49
2023/05/06 11:04:42;;;;;;;7.27;5.40;;;9.80;99.90;;;;;;5070641;28;20884;-46
2023/05/06 11:07:11;;;;;;;7.43;5.20;;;9.80;99.90;;;;;;5076135;28;20213;-47
2023/05/06 11:09:54;;;;;;;6.63;4.93;;;9.80;99.90;;;;;;5054648;28;20212;-50
2023/05/06 11:12:22;;;;;;;6.77;5.10;;;9.80;99.90;;;;;;5069939;28;20920;-57
2023/05/06 11:14:49;;;;;;;6.40;5.63;;;9.80;99.90;;;;;;5072845;28;20214;-46
2023/05/06 11:17:31;;;;;;;7.77;5.40;;;9.80;99.90;;;;;;5078160;28;20200;-49
2023/05/06 11:20:22;;;;;;;6.00;5.40;;;9.80;99.90;;;;;;5075691;28;20202;-46
2023/05/06 11:22:50;;;;;;;6.17;5.57;;;9.90;99.90;;;;;;5078542;28;20255;-47
2023/05/06 11:25:41;;;;;;;9.47;5.93;;;9.90;99.90;;;;;;5050812;28;20202;-52
2023/05/06 11:28:10;;;;;;;7.40;5.67;;;10.00;99.90;;;;;;5069983;28;20227;-49
2023/05/06 11:30:40;;;;;;;8.17;5.80;;;10.00;99.90;;;;;;5065851;28;20230;-47
2023/05/06 11:33:08;;;;;;;8.57;5.77;;;10.00;99.90;;;;;;5081372;28;20536;-46
2023/05/06 11:35:37;;;;;;;10.17;6.43;;;10.00;99.90;;;;;;5069480;28;20684;-55
2023/05/06 11:38:04;;;;;;;6.67;5.77;;;10.10;99.90;;;;;;5080016;28;20217;-52
2023/05/06 11:40:32;;;;;;;8.87;6.20;;;10.10;99.90;;;;;;5053294;28;20600;-56
2023/05/06 11:43:10;;;;;;;11.47;6.33;;;10.10;99.90;;;;;;5075145;28;20201;-57
2023/05/06 11:45:41;;;;;;;6.93;5.97;;;10.20;99.90;;;;;;5075333;28;20310;-49
2023/05/06 11:48:11;;;;;;;6.93;5.70;;;10.30;99.90;;;;;;5076642;28;20628;-55
2023/05/06 11:50:43;;;;;;;9.43;6.60;;;10.30;99.90;;;;;;5076072;28;20201;-46
2023/05/06 11:53:11;;;;;;;7.63;6.10;;;10.30;99.90;;;;;;5067095;28;20616;-55
2023/05/06 11:55:38;;;;;;;6.87;6.07;;;10.30;99.90;;;;;;5052316;28;20264;-48
2023/05/06 11:58:05;;;;;;;10.73;6.70;;;10.30;99.90;;;;;;5074000;28;20222;-55
2023/05/06 12:00:31;;;;;;;8.13;6.10;;;10.30;99.90;;;;;;5067774;28;20276;-56
2023/05/06 12:03:01;;;;;;;9.83;6.60;;;10.30;99.90;;;;;;5076826;28;20985;-48
2023/05/06 12:05:28;;;;;;;10.63;6.37;;;10.30;99.90;;;;;;5069337;28;20210;-56
2023/05/06 12:07:56;;;;;;;8.30;6.47;;;10.20;99.90;;;;;;5064125;28;20216;-52
2023/05/06 12:10:23;;;;;;;7.97;6.40;;;10.30;99.90;;;;;;5078502;28;20198;-49
2023/05/06 12:12:51;;;;;;;10.93;6.13;;;10.20;99.90;;;;;;5049698;28;20295;-44
2023/05/06 12:15:18;;;;;;;9.47;6.87;;;10.30;99.90;;;;;;5070115;28;20222;-50
2023/05/06 12:17:45;;;;;;;8.70;6.20;;;10.20;99.90;;;;;;5071251;28;20900;-50
2023/05/06 12:20:13;;;;;;;9.20;6.60;;;10.10;99.90;;;;;;5070153;28;20205;-49
2023/05/06 12:22:43;;;;;;;9.67;7.00;;;10.10;99.90;;;;;;5065628;28;20209;-55
2023/05/06 12:25:15;;;;;;;10.77;7.37;;;10.10;99.90;;;;;;5082967;28;20202;-49
2023/05/06 12:27:43;;;;;;;7.97;6.83;;;10.20;99.90;;;;;;5054413;28;20584;-54
2023/05/06 12:30:10;;;;;;;10.87;6.77;;;10.20;99.90;;;;;;5076710;28;20210;-47
2023/05/06 12:32:56;;;;;;;8.20;7.43;;;10.30;99.90;;;;;;5079988;28;20305;-57
2023/05/06 12:35:27;;;;;;;12.13;7.13;;;10.30;99.90;;;;;;5067873;28;20270;-52
2023/05/06 12:37:54;;;;;;;9.90;6.67;;;10.40;99.90;;;;;;5075500;28;20213;-44
2023/05/06 12:40:23;;;;;;;11.90;7.13;;;10.40;99.90;;;;;;5077107;28;20210;-46
2023/05/06 12:42:54;;;;;;;9.43;7.60;;;10.40;99.90;;;;;;5051959;28;20281;-44
2023/05/06 12:45:22;;;;;;;11.50;7.47;;;10.40;99.90;;;;;;5072982;28;20211;-49
2023/05/06 12:47:52;;;;;;;8.60;6.27;;;10.40;99.90;;;;;;5070382;28;20979;-54
2023/05/06 12:50:31;;;;;;;13.87;7.13;;;10.40;99.90;;;;;;5072614;28;20198;-47
2023/05/06 12:52:58;;;;;;;11.17;7.40;;;10.40;99.90;;;;;;5069850;28;20236;-44
2023/05/06 12:55:26;;;;;;;11.07;7.43;;;10.50;99.90;;;;;;5070028;27;20284;-44
2023/05/06 12:57:53;;;;;;;8.93;8.03;;;10.60;99.90;;;;;;5044980;28;21965;-44
2023/05/06 13:00:21;;;;;;;10.07;6.60;;;10.50;99.90;;;;;;5076098;28;20592;-48
2023/05/06 13:02:48;;;;;;;11.10;7.20;;;10.50;99.90;;;;;;5064125;28;20271;-47
2023/05/06 13:05:15;;;;;;;12.27;7.30;;;10.50;99.90;;;;;;5080218;28;20185;-44
2023/05/06 13:07:42;;;;;;;8.47;6.00;;;10.50;99.90;;;;;;5073794;28;20289;-55
2023/05/06 13:10:09;;;;;;;6.87;5.63;;;10.60;99.90;;;;;;5077142;28;20202;-46
2023/05/06 13:12:38;;;;;;;10.97;6.10;;;10.60;99.90;;;;;;5082768;28;20232;-55
2023/05/06 13:15:07;;;;;;;8.03;6.33;;;10.50;99.90;;;;;;5056695;28;20221;-53
2023/05/06 13:17:34;;;;;;;10.30;6.53;;;10.50;99.90;;;;;;5053203;28;22659;-55
2023/05/06 13:20:01;;;;;;;8.13;6.20;;;10.60;99.90;;;;;;5067540;28;20198;-46
2023/05/06 13:22:28;;;;;;;8.27;6.27;;;10.60;99.90;;;;;;5080583;28;20243;-50